sensor_id;sensor_type;location;lat;lon;timestamp;P1;durP1;ratioP1;P2;durP2;ratioP2
21979;SDS011;11154;48.558;9.234;2023-02-15T00:00:06;21.00;;;12.77;;
21979;SDS011;11154;48.558;9.234;2023-02-15T00:02:11;20.15;;;12.60;;
21979;SDS011;11154;48.558;9.234;2023-02-15T00:04:13;25.60;;;13.73;;
21979;SDS011;11154;48.558;9.234;2023-02-15T00:06:16;26.00;;;12.93;;
21979;SDS011;11154;48.558;9.234;2023-02-15T00:08:18;21.40;;;13.32;;
21979;SDS011;11154;48.558;9.234;2023-02-15T00:10:20;21.02;;;12.60;;
21979;SDS011;11154;48.558;9.234;2023-02-15T00:12:23;22.20;;;13.32;;
21979;SDS011;11154;48.558;9.234;2023-02-15T00:14:25;22.75;;;13.35;;
21979;SDS011;11154;48.558;9.234;2023-02-15T00:16:26;19.98;;;12.52;;
21979;SDS011;11154;48.558;9.234;2023-02-15T00:18:29;19.80;;;12.40;;
21979;SDS011;11154;48.558;9.234;2023-02-15T00:20:31;24.40;;;12.70;;
21979;SDS011;11154;48.558;9.234;2023-02-15T00:22:33;23.35;;;13.70;;
21979;SDS011;11154;48.558;9.234;2023-02-15T00:24:35;24.30;;;12.63;;
21979;SDS011;11154;48.558;9.234;2023-02-15T00:26:37;23.88;;;13.98;;
21979;SDS011;11154;48.558;9.234;2023-02-15T00:28:40;22.30;;;13.52;;
21979;SDS011;11154;48.558;9.234;2023-02-15T00:30:41;22.25;;;12.80;;
21979;SDS011;11154;48.558;9.234;2023-02-15T00:32:43;25.20;;;14.25;;
21979;SDS011;11154;48.558;9.234;2023-02-15T00:34:46;26.95;;;14.75;;
21979;SDS011;11154;48.558;9.234;2023-02-15T00:36:47;26.85;;;13.80;;
21979;SDS011;11154;48.558;9.234;2023-02-15T00:38:49;24.88;;;13.85;;
21979;SDS011;11154;48.558;9.234;2023-02-15T00:40:52;23.90;;;15.05;;
21979;SDS011;11154;48.558;9.234;2023-02-15T00:42:54;26.45;;;13.45;;
21979;SDS011;11154;48.558;9.234;2023-02-15T00:44:55;21.60;;;13.52;;
21979;SDS011;11154;48.558;9.234;2023-02-15T00:46:57;21.42;;;12.85;;
21979;SDS011;11154;48.558;9.234;2023-02-15T00:48:59;25.25;;;15.38;;
21979;SDS011;11154;48.558;9.234;2023-02-15T00:51:02;24.70;;;13.63;;
21979;SDS011;11154;48.558;9.234;2023-02-15T00:53:04;22.52;;;13.23;;
21979;SDS011;11154;48.558;9.234;2023-02-15T00:55:06;23.77;;;13.82;;
21979;SDS011;11154;48.558;9.234;2023-02-15T00:57:08;22.92;;;13.30;;
21979;SDS011;11154;48.558;9.234;2023-02-15T00:59:10;23.13;;;13.15;;
21979;SDS011;11154;48.558;9.234;2023-02-15T01:01:12;21.25;;;13.02;;
21979;SDS011;11154;48.558;9.234;2023-02-15T01:03:15;28.83;;;13.07;;
21979;SDS011;11154;48.558;9.234;2023-02-15T01:05:18;23.92;;;13.15;;
21979;SDS011;11154;48.558;9.234;2023-02-15T01:07:21;21.63;;;12.45;;
21979;SDS011;11154;48.558;9.234;2023-02-15T01:09:23;22.58;;;12.77;;
21979;SDS011;11154;48.558;9.234;2023-02-15T01:11:24;20.77;;;13.15;;
21979;SDS011;11154;48.558;9.234;2023-02-15T01:13:26;20.40;;;12.65;;
21979;SDS011;11154;48.558;9.234;2023-02-15T01:15:28;22.20;;;12.02;;
21979;SDS011;11154;48.558;9.234;2023-02-15T01:17:30;21.30;;;13.43;;
21979;SDS011;11154;48.558;9.234;2023-02-15T01:19:32;21.02;;;14.13;;
21979;SDS011;11154;48.558;9.234;2023-02-15T01:21:34;21.33;;;13.18;;
21979;SDS011;11154;48.558;9.234;2023-02-15T01:23:37;19.88;;;11.95;;
21979;SDS011;11154;48.558;9.234;2023-02-15T01:25:39;19.33;;;13.10;;
21979;SDS011;11154;48.558;9.234;2023-02-15T01:27:40;22.60;;;13.63;;
21979;SDS011;11154;48.558;9.234;2023-02-15T01:29:42;24.23;;;13.50;;
21979;SDS011;11154;48.558;9.234;2023-02-15T01:31:44;21.13;;;12.88;;
21979;SDS011;11154;48.558;9.234;2023-02-15T01:33:46;20.35;;;12.90;;
21979;SDS011;11154;48.558;9.234;2023-02-15T01:35:48;19.20;;;12.25;;
21979;SDS011;11154;48.558;9.234;2023-02-15T01:37:50;20.58;;;12.00;;
21979;SDS011;11154;48.558;9.234;2023-02-15T01:39:53;19.80;;;12.30;;
21979;SDS011;11154;48.558;9.234;2023-02-15T01:41:54;20.05;;;12.18;;
21979;SDS011;11154;48.558;9.234;2023-02-15T01:43:57;19.05;;;10.48;;
21979;SDS011;11154;48.558;9.234;2023-02-15T01:46:00;17.88;;;11.40;;
21979;SDS011;11154;48.558;9.234;2023-02-15T01:48:03;18.65;;;10.60;;
21979;SDS011;11154;48.558;9.234;2023-02-15T01:50:08;18.48;;;10.52;;
21979;SDS011;11154;48.558;9.234;2023-02-15T01:52:14;17.05;;;9.52;;
21979;SDS011;11154;48.558;9.234;2023-02-15T01:54:19;19.63;;;10.88;;
21979;SDS011;11154;48.558;9.234;2023-02-15T01:56:27;24.67;;;11.48;;
21979;SDS011;11154;48.558;9.234;2023-02-15T01:58:32;19.17;;;11.57;;
21979;SDS011;11154;48.558;9.234;2023-02-15T02:00:35;17.60;;;10.90;;
21979;SDS011;11154;48.558;9.234;2023-02-15T02:02:37;18.33;;;13.40;;
21979;SDS011;11154;48.558;9.234;2023-02-15T02:04:40;22.23;;;15.35;;
21979;SDS011;11154;48.558;9.234;2023-02-15T02:06:46;19.45;;;15.40;;
21979;SDS011;11154;48.558;9.234;2023-02-15T02:08:50;21.00;;;16.10;;
21979;SDS011;11154;48.558;9.234;2023-02-15T02:10:53;20.02;;;16.15;;
21979;SDS011;11154;48.558;9.234;2023-02-15T02:12:56;19.73;;;15.73;;
21979;SDS011;11154;48.558;9.234;2023-02-15T02:15:01;19.23;;;15.48;;
21979;SDS011;11154;48.558;9.234;2023-02-15T02:17:04;20.70;;;16.13;;
21979;SDS011;11154;48.558;9.234;2023-02-15T02:19:20;22.25;;;15.95;;
21979;SDS011;11154;48.558;9.234;2023-02-15T02:27:00;19.73;;;15.13;;
21979;SDS011;11154;48.558;9.234;2023-02-15T02:29:36;22.67;;;15.65;;
21979;SDS011;11154;48.558;9.234;2023-02-15T02:31:57;17.27;;;14.18;;
21979;SDS011;11154;48.558;9.234;2023-02-15T02:34:20;18.08;;;14.18;;
21979;SDS011;11154;48.558;9.234;2023-02-15T02:36:30;18.02;;;13.95;;
21979;SDS011;11154;48.558;9.234;2023-02-15T02:38:39;17.98;;;14.27;;
21979;SDS011;11154;48.558;9.234;2023-02-15T02:40:51;18.30;;;14.23;;
21979;SDS011;11154;48.558;9.234;2023-02-15T02:43:01;16.35;;;13.50;;
21979;SDS011;11154;48.558;9.234;2023-02-15T02:45:12;16.77;;;13.52;;
21979;SDS011;11154;48.558;9.234;2023-02-15T02:47:19;18.33;;;14.50;;
21979;SDS011;11154;48.558;9.234;2023-02-15T02:49:30;19.52;;;14.07;;
21979;SDS011;11154;48.558;9.234;2023-02-15T02:51:33;20.42;;;14.27;;
21979;SDS011;11154;48.558;9.234;2023-02-15T02:53:35;17.55;;;13.40;;
21979;SDS011;11154;48.558;9.234;2023-02-15T02:55:38;18.40;;;14.73;;
21979;SDS011;11154;48.558;9.234;2023-02-15T02:57:46;17.85;;;14.10;;
21979;SDS011;11154;48.558;9.234;2023-02-15T02:59:53;17.60;;;14.05;;
21979;SDS011;11154;48.558;9.234;2023-02-15T03:02:00;17.15;;;13.95;;
21979;SDS011;11154;48.558;9.234;2023-02-15T03:04:08;19.20;;;15.18;;
21979;SDS011;11154;48.558;9.234;2023-02-15T03:06:14;19.05;;;15.60;;
21979;SDS011;11154;48.558;9.234;2023-02-15T03:08:19;21.63;;;17.60;;
21979;SDS011;11154;48.558;9.234;2023-02-15T03:10:24;19.90;;;15.73;;
21979;SDS011;11154;48.558;9.234;2023-02-15T03:12:28;19.02;;;15.23;;
21979;SDS011;11154;48.558;9.234;2023-02-15T03:14:32;18.55;;;15.30;;
21979;SDS011;11154;48.558;9.234;2023-02-15T03:16:34;19.90;;;15.63;;
21979;SDS011;11154;48.558;9.234;2023-02-15T03:18:37;21.02;;;16.58;;
21979;SDS011;11154;48.558;9.234;2023-02-15T03:20:42;22.05;;;17.67;;
21979;SDS011;11154;48.558;9.234;2023-02-15T03:22:47;21.40;;;17.25;;
21979;SDS011;11154;48.558;9.234;2023-02-15T03:24:55;22.00;;;17.13;;
21979;SDS011;11154;48.558;9.234;2023-02-15T03:27:00;21.17;;;16.92;;
21979;SDS011;11154;48.558;9.234;2023-02-15T03:29:05;20.58;;;16.85;;
21979;SDS011;11154;48.558;9.234;2023-02-15T03:31:09;21.48;;;15.82;;
21979;SDS011;11154;48.558;9.234;2023-02-15T03:33:14;21.20;;;16.23;;
21979;SDS011;11154;48.558;9.234;2023-02-15T03:35:17;20.20;;;15.70;;
21979;SDS011;11154;48.558;9.234;2023-02-15T03:37:23;18.33;;;14.57;;
21979;SDS011;11154;48.558;9.234;2023-02-15T03:39:32;19.67;;;15.38;;
21979;SDS011;11154;48.558;9.234;2023-02-15T03:41:39;18.40;;;14.90;;
21979;SDS011;11154;48.558;9.234;2023-02-15T03:43:48;21.10;;;16.13;;
21979;SDS011;11154;48.558;9.234;2023-02-15T03:45:55;20.17;;;16.10;;
21979;SDS011;11154;48.558;9.234;2023-02-15T03:47:59;23.45;;;16.40;;
21979;SDS011;11154;48.558;9.234;2023-02-15T03:50:03;19.38;;;14.57;;
21979;SDS011;11154;48.558;9.234;2023-02-15T03:52:28;19.08;;;15.07;;
21979;SDS011;11154;48.558;9.234;2023-02-15T03:54:33;19.48;;;15.43;;
21979;SDS011;11154;48.558;9.234;2023-02-15T03:56:46;19.88;;;15.60;;
21979;SDS011;11154;48.558;9.234;2023-02-15T03:59:09;19.95;;;15.65;;
21979;SDS011;11154;48.558;9.234;2023-02-15T04:01:31;20.97;;;12.93;;
21979;SDS011;11154;48.558;9.234;2023-02-15T04:03:59;19.92;;;12.82;;
21979;SDS011;11154;48.558;9.234;2023-02-15T04:06:04;22.08;;;11.50;;
21979;SDS011;11154;48.558;9.234;2023-02-15T04:08:06;17.52;;;11.50;;
21979;SDS011;11154;48.558;9.234;2023-02-15T04:10:10;17.33;;;11.40;;
21979;SDS011;11154;48.558;9.234;2023-02-15T04:12:29;16.58;;;10.60;;
21979;SDS011;11154;48.558;9.234;2023-02-15T04:14:31;18.98;;;11.50;;
21979;SDS011;11154;48.558;9.234;2023-02-15T04:16:51;17.52;;;11.23;;
21979;SDS011;11154;48.558;9.234;2023-02-15T04:18:52;16.88;;;10.60;;
21979;SDS011;11154;48.558;9.234;2023-02-15T04:21:12;15.07;;;10.50;;
21979;SDS011;11154;48.558;9.234;2023-02-15T04:23:31;15.10;;;10.25;;
21979;SDS011;11154;48.558;9.234;2023-02-15T04:25:52;16.13;;;11.32;;
21979;SDS011;11154;48.558;9.234;2023-02-15T04:27:54;17.25;;;9.23;;
21979;SDS011;11154;48.558;9.234;2023-02-15T04:29:56;16.05;;;9.90;;
21979;SDS011;11154;48.558;9.234;2023-02-15T04:31:58;21.42;;;10.02;;
21979;SDS011;11154;48.558;9.234;2023-02-15T04:34:00;17.45;;;10.55;;
21979;SDS011;11154;48.558;9.234;2023-02-15T04:36:02;16.95;;;10.25;;
21979;SDS011;11154;48.558;9.234;2023-02-15T04:38:05;19.33;;;10.75;;
21979;SDS011;11154;48.558;9.234;2023-02-15T04:40:07;15.98;;;9.63;;
21979;SDS011;11154;48.558;9.234;2023-02-15T04:42:12;16.77;;;9.98;;
21979;SDS011;11154;48.558;9.234;2023-02-15T04:44:14;16.08;;;9.75;;
21979;SDS011;11154;48.558;9.234;2023-02-15T04:46:16;18.30;;;10.32;;
21979;SDS011;11154;48.558;9.234;2023-02-15T04:48:17;16.42;;;9.70;;
21979;SDS011;11154;48.558;9.234;2023-02-15T04:50:19;15.07;;;9.55;;
21979;SDS011;11154;48.558;9.234;2023-02-15T04:52:21;19.70;;;10.18;;
21979;SDS011;11154;48.558;9.234;2023-02-15T04:54:22;16.58;;;10.52;;
21979;SDS011;11154;48.558;9.234;2023-02-15T04:56:24;21.02;;;11.35;;
21979;SDS011;11154;48.558;9.234;2023-02-15T04:58:27;15.20;;;9.52;;
21979;SDS011;11154;48.558;9.234;2023-02-15T05:00:29;16.00;;;9.50;;
21979;SDS011;11154;48.558;9.234;2023-02-15T05:02:30;19.00;;;9.80;;
21979;SDS011;11154;48.558;9.234;2023-02-15T05:04:32;17.38;;;10.45;;
21979;SDS011;11154;48.558;9.234;2023-02-15T05:06:34;18.08;;;10.73;;
21979;SDS011;11154;48.558;9.234;2023-02-15T05:08:36;18.75;;;10.52;;
21979;SDS011;11154;48.558;9.234;2023-02-15T05:10:38;19.67;;;11.40;;
21979;SDS011;11154;48.558;9.234;2023-02-15T05:12:39;21.65;;;13.15;;
21979;SDS011;11154;48.558;9.234;2023-02-15T05:14:42;18.75;;;12.45;;
21979;SDS011;11154;48.558;9.234;2023-02-15T05:16:44;17.83;;;12.25;;
21979;SDS011;11154;48.558;9.234;2023-02-15T05:18:45;17.80;;;11.57;;
21979;SDS011;11154;48.558;9.234;2023-02-15T05:20:47;16.27;;;11.05;;
21979;SDS011;11154;48.558;9.234;2023-02-15T05:22:50;17.50;;;10.55;;
21979;SDS011;11154;48.558;9.234;2023-02-15T05:24:54;17.38;;;9.68;;
21979;SDS011;11154;48.558;9.234;2023-02-15T05:27:13;16.67;;;10.32;;
21979;SDS011;11154;48.558;9.234;2023-02-15T05:29:32;15.50;;;11.82;;
21979;SDS011;11154;48.558;9.234;2023-02-15T05:31:35;16.33;;;10.80;;
21979;SDS011;11154;48.558;9.234;2023-02-15T05:33:38;17.83;;;12.02;;
21979;SDS011;11154;48.558;9.234;2023-02-15T05:35:40;18.73;;;11.13;;
21979;SDS011;11154;48.558;9.234;2023-02-15T05:37:42;17.75;;;11.27;;
21979;SDS011;11154;48.558;9.234;2023-02-15T05:39:43;18.95;;;9.82;;
21979;SDS011;11154;48.558;9.234;2023-02-15T05:41:45;17.15;;;9.95;;
21979;SDS011;11154;48.558;9.234;2023-02-15T05:43:47;15.73;;;10.25;;
21979;SDS011;11154;48.558;9.234;2023-02-15T05:45:49;18.73;;;9.98;;
21979;SDS011;11154;48.558;9.234;2023-02-15T05:47:53;17.83;;;11.02;;
21979;SDS011;11154;48.558;9.234;2023-02-15T05:49:55;18.77;;;11.57;;
21979;SDS011;11154;48.558;9.234;2023-02-15T05:51:56;17.15;;;9.98;;
21979;SDS011;11154;48.558;9.234;2023-02-15T05:53:58;17.60;;;9.38;;
21979;SDS011;11154;48.558;9.234;2023-02-15T05:56:00;20.50;;;11.23;;
21979;SDS011;11154;48.558;9.234;2023-02-15T05:58:02;16.40;;;10.40;;
21979;SDS011;11154;48.558;9.234;2023-02-15T06:00:04;17.40;;;10.07;;
21979;SDS011;11154;48.558;9.234;2023-02-15T06:02:06;17.02;;;9.75;;
21979;SDS011;11154;48.558;9.234;2023-02-15T06:04:09;17.27;;;10.27;;
21979;SDS011;11154;48.558;9.234;2023-02-15T06:06:11;19.02;;;10.32;;
21979;SDS011;11154;48.558;9.234;2023-02-15T06:08:13;17.85;;;11.23;;
21979;SDS011;11154;48.558;9.234;2023-02-15T06:10:14;16.42;;;10.02;;
21979;SDS011;11154;48.558;9.234;2023-02-15T06:12:16;19.60;;;9.07;;
21979;SDS011;11154;48.558;9.234;2023-02-15T06:14:18;14.20;;;9.13;;
21979;SDS011;11154;48.558;9.234;2023-02-15T06:16:20;18.50;;;10.00;;
21979;SDS011;11154;48.558;9.234;2023-02-15T06:18:21;19.00;;;11.60;;
21979;SDS011;11154;48.558;9.234;2023-02-15T06:20:24;16.25;;;9.90;;
21979;SDS011;11154;48.558;9.234;2023-02-15T06:22:26;18.10;;;9.95;;
21979;SDS011;11154;48.558;9.234;2023-02-15T06:24:28;17.20;;;9.65;;
21979;SDS011;11154;48.558;9.234;2023-02-15T06:26:30;17.25;;;9.55;;
21979;SDS011;11154;48.558;9.234;2023-02-15T06:28:31;18.23;;;11.13;;
21979;SDS011;11154;48.558;9.234;2023-02-15T06:30:33;14.85;;;9.80;;
21979;SDS011;11154;48.558;9.234;2023-02-15T06:32:35;16.20;;;10.80;;
21979;SDS011;11154;48.558;9.234;2023-02-15T06:34:37;18.17;;;11.63;;
21979;SDS011;11154;48.558;9.234;2023-02-15T06:36:40;15.90;;;9.65;;
21979;SDS011;11154;48.558;9.234;2023-02-15T06:38:41;16.02;;;9.55;;
21979;SDS011;11154;48.558;9.234;2023-02-15T06:40:43;14.82;;;10.00;;
21979;SDS011;11154;48.558;9.234;2023-02-15T06:42:45;18.83;;;10.75;;
21979;SDS011;11154;48.558;9.234;2023-02-15T06:44:46;15.57;;;9.85;;
21979;SDS011;11154;48.558;9.234;2023-02-15T06:46:48;15.52;;;9.95;;
21979;SDS011;11154;48.558;9.234;2023-02-15T06:48:50;18.17;;;10.32;;
21979;SDS011;11154;48.558;9.234;2023-02-15T06:50:51;15.80;;;9.80;;
21979;SDS011;11154;48.558;9.234;2023-02-15T06:52:56;18.23;;;10.07;;
21979;SDS011;11154;48.558;9.234;2023-02-15T06:54:58;18.80;;;11.13;;
21979;SDS011;11154;48.558;9.234;2023-02-15T06:57:00;15.38;;;9.77;;
21979;SDS011;11154;48.558;9.234;2023-02-15T06:59:02;17.13;;;10.32;;
21979;SDS011;11154;48.558;9.234;2023-02-15T07:01:05;16.33;;;9.18;;
21979;SDS011;11154;48.558;9.234;2023-02-15T07:03:07;18.08;;;10.20;;
21979;SDS011;11154;48.558;9.234;2023-02-15T07:05:09;17.10;;;9.93;;
21979;SDS011;11154;48.558;9.234;2023-02-15T07:07:12;18.60;;;10.13;;
21979;SDS011;11154;48.558;9.234;2023-02-15T07:09:15;16.52;;;9.50;;
21979;SDS011;11154;48.558;9.234;2023-02-15T07:11:17;16.60;;;9.30;;
21979;SDS011;11154;48.558;9.234;2023-02-15T07:13:36;15.60;;;10.57;;
21979;SDS011;11154;48.558;9.234;2023-02-15T07:15:38;15.02;;;9.68;;
21979;SDS011;11154;48.558;9.234;2023-02-15T07:17:39;13.68;;;9.35;;
21979;SDS011;11154;48.558;9.234;2023-02-15T07:19:41;17.48;;;10.35;;
21979;SDS011;11154;48.558;9.234;2023-02-15T07:21:43;16.48;;;9.48;;
21979;SDS011;11154;48.558;9.234;2023-02-15T07:23:45;14.15;;;9.98;;
21979;SDS011;11154;48.558;9.234;2023-02-15T07:25:49;18.42;;;11.75;;
21979;SDS011;11154;48.558;9.234;2023-02-15T07:27:58;21.65;;;13.40;;
21979;SDS011;11154;48.558;9.234;2023-02-15T07:30:00;18.85;;;12.48;;
21979;SDS011;11154;48.558;9.234;2023-02-15T07:32:02;18.38;;;11.75;;
21979;SDS011;11154;48.558;9.234;2023-02-15T07:34:05;18.85;;;11.82;;
21979;SDS011;11154;48.558;9.234;2023-02-15T07:36:07;19.75;;;11.43;;
21979;SDS011;11154;48.558;9.234;2023-02-15T07:38:12;17.50;;;11.80;;
21979;SDS011;11154;48.558;9.234;2023-02-15T07:40:13;18.60;;;13.38;;
21979;SDS011;11154;48.558;9.234;2023-02-15T07:42:16;18.73;;;11.73;;
21979;SDS011;11154;48.558;9.234;2023-02-15T07:44:19;18.00;;;11.50;;
21979;SDS011;11154;48.558;9.234;2023-02-15T07:46:21;77.25;;;16.95;;
21979;SDS011;11154;48.558;9.234;2023-02-15T07:48:22;18.92;;;11.02;;
21979;SDS011;11154;48.558;9.234;2023-02-15T07:50:24;20.90;;;11.50;;
21979;SDS011;11154;48.558;9.234;2023-02-15T07:52:26;21.23;;;11.68;;
21979;SDS011;11154;48.558;9.234;2023-02-15T07:54:27;18.65;;;11.75;;
21979;SDS011;11154;48.558;9.234;2023-02-15T07:56:29;20.85;;;11.27;;
21979;SDS011;11154;48.558;9.234;2023-02-15T07:58:32;19.35;;;12.00;;
21979;SDS011;11154;48.558;9.234;2023-02-15T08:00:52;18.88;;;11.95;;
21979;SDS011;11154;48.558;9.234;2023-02-15T08:03:01;17.80;;;11.48;;
21979;SDS011;11154;48.558;9.234;2023-02-15T08:05:19;16.75;;;11.07;;
21979;SDS011;11154;48.558;9.234;2023-02-15T08:07:21;20.90;;;11.27;;
21979;SDS011;11154;48.558;9.234;2023-02-15T08:09:22;18.02;;;10.85;;
21979;SDS011;11154;48.558;9.234;2023-02-15T08:11:24;17.88;;;11.07;;
21979;SDS011;11154;48.558;9.234;2023-02-15T08:13:34;18.97;;;12.00;;
21979;SDS011;11154;48.558;9.234;2023-02-15T08:15:53;18.35;;;12.38;;
21979;SDS011;11154;48.558;9.234;2023-02-15T08:17:55;18.20;;;11.27;;
21979;SDS011;11154;48.558;9.234;2023-02-15T08:19:56;24.80;;;12.13;;
21979;SDS011;11154;48.558;9.234;2023-02-15T08:21:59;18.13;;;12.10;;
21979;SDS011;11154;48.558;9.234;2023-02-15T08:24:02;18.27;;;11.50;;
21979;SDS011;11154;48.558;9.234;2023-02-15T08:26:05;18.80;;;11.65;;
21979;SDS011;11154;48.558;9.234;2023-02-15T08:28:06;17.60;;;11.88;;
21979;SDS011;11154;48.558;9.234;2023-02-15T08:30:11;17.48;;;11.52;;
21979;SDS011;11154;48.558;9.234;2023-02-15T08:32:14;17.08;;;10.52;;
21979;SDS011;11154;48.558;9.234;2023-02-15T08:34:17;19.30;;;11.82;;
21979;SDS011;11154;48.558;9.234;2023-02-15T08:36:20;18.20;;;12.70;;
21979;SDS011;11154;48.558;9.234;2023-02-15T08:38:23;18.13;;;11.45;;
21979;SDS011;11154;48.558;9.234;2023-02-15T08:40:25;17.88;;;10.32;;
21979;SDS011;11154;48.558;9.234;2023-02-15T08:42:27;16.98;;;11.90;;
21979;SDS011;11154;48.558;9.234;2023-02-15T08:44:28;17.95;;;11.20;;
21979;SDS011;11154;48.558;9.234;2023-02-15T08:46:32;18.05;;;11.38;;
21979;SDS011;11154;48.558;9.234;2023-02-15T08:48:35;16.42;;;10.55;;
21979;SDS011;11154;48.558;9.234;2023-02-15T08:50:36;16.42;;;10.88;;
21979;SDS011;11154;48.558;9.234;2023-02-15T08:52:38;19.58;;;11.10;;
21979;SDS011;11154;48.558;9.234;2023-02-15T08:54:39;18.90;;;12.10;;
21979;SDS011;11154;48.558;9.234;2023-02-15T08:56:41;29.67;;;19.00;;
21979;SDS011;11154;48.558;9.234;2023-02-15T08:58:44;17.38;;;11.70;;
21979;SDS011;11154;48.558;9.234;2023-02-15T09:00:46;36.88;;;24.67;;
21979;SDS011;11154;48.558;9.234;2023-02-15T09:02:49;26.60;;;17.00;;
21979;SDS011;11154;48.558;9.234;2023-02-15T09:04:50;21.75;;;12.68;;
21979;SDS011;11154;48.558;9.234;2023-02-15T09:06:52;18.45;;;12.52;;
21979;SDS011;11154;48.558;9.234;2023-02-15T09:08:55;18.65;;;12.55;;
21979;SDS011;11154;48.558;9.234;2023-02-15T09:11:04;31.88;;;21.73;;
21979;SDS011;11154;48.558;9.234;2023-02-15T09:13:09;20.63;;;13.52;;
21979;SDS011;11154;48.558;9.234;2023-02-15T09:15:11;16.35;;;11.27;;
21979;SDS011;11154;48.558;9.234;2023-02-15T09:17:12;16.50;;;11.68;;
21979;SDS011;11154;48.558;9.234;2023-02-15T09:19:16;19.83;;;12.02;;
21979;SDS011;11154;48.558;9.234;2023-02-15T09:21:19;16.45;;;10.82;;
21979;SDS011;11154;48.558;9.234;2023-02-15T09:23:22;18.50;;;12.73;;
21979;SDS011;11154;48.558;9.234;2023-02-15T09:25:24;15.52;;;11.70;;
21979;SDS011;11154;48.558;9.234;2023-02-15T09:27:25;17.98;;;11.00;;
21979;SDS011;11154;48.558;9.234;2023-02-15T09:29:27;19.00;;;12.88;;
21979;SDS011;11154;48.558;9.234;2023-02-15T09:31:29;17.52;;;11.98;;
21979;SDS011;11154;48.558;9.234;2023-02-15T09:33:33;30.75;;;18.65;;
21979;SDS011;11154;48.558;9.234;2023-02-15T09:35:36;30.45;;;17.88;;
21979;SDS011;11154;48.558;9.234;2023-02-15T09:37:37;36.00;;;22.70;;
21979;SDS011;11154;48.558;9.234;2023-02-15T09:39:40;15.45;;;10.82;;
21979;SDS011;11154;48.558;9.234;2023-02-15T09:41:51;18.05;;;12.18;;
21979;SDS011;11154;48.558;9.234;2023-02-15T09:44:07;20.77;;;13.95;;
21979;SDS011;11154;48.558;9.234;2023-02-15T09:46:21;25.98;;;15.73;;
21979;SDS011;11154;48.558;9.234;2023-02-15T09:48:40;17.90;;;10.63;;
21979;SDS011;11154;48.558;9.234;2023-02-15T09:50:48;26.02;;;16.75;;
21979;SDS011;11154;48.558;9.234;2023-02-15T09:55:31;18.27;;;11.93;;
21979;SDS011;11154;48.558;9.234;2023-02-15T09:57:43;13.18;;;7.85;;
21979;SDS011;11154;48.558;9.234;2023-02-15T09:59:55;13.05;;;7.88;;
21979;SDS011;11154;48.558;9.234;2023-02-15T10:02:09;13.98;;;8.60;;
21979;SDS011;11154;48.558;9.234;2023-02-15T10:04:29;14.18;;;10.77;;
21979;SDS011;11154;48.558;9.234;2023-02-15T10:06:47;12.10;;;7.13;;
21979;SDS011;11154;48.558;9.234;2023-02-15T10:11:29;19.13;;;12.80;;
21979;SDS011;11154;48.558;9.234;2023-02-15T10:13:42;13.75;;;10.65;;
21979;SDS011;11154;48.558;9.234;2023-02-15T10:15:56;11.48;;;7.75;;
21979;SDS011;11154;48.558;9.234;2023-02-15T10:18:15;12.20;;;7.80;;
21979;SDS011;11154;48.558;9.234;2023-02-15T10:20:36;12.68;;;8.63;;
21979;SDS011;11154;48.558;9.234;2023-02-15T10:22:51;12.48;;;8.40;;
21979;SDS011;11154;48.558;9.234;2023-02-15T10:25:12;11.13;;;8.30;;
21979;SDS011;11154;48.558;9.234;2023-02-15T10:27:26;12.27;;;8.73;;
21979;SDS011;11154;48.558;9.234;2023-02-15T10:29:35;14.70;;;8.52;;
21979;SDS011;11154;48.558;9.234;2023-02-15T10:31:40;16.25;;;8.57;;
21979;SDS011;11154;48.558;9.234;2023-02-15T10:33:54;13.52;;;8.85;;
21979;SDS011;11154;48.558;9.234;2023-02-15T10:36:18;13.07;;;8.15;;
21979;SDS011;11154;48.558;9.234;2023-02-15T10:38:33;11.93;;;8.68;;
21979;SDS011;11154;48.558;9.234;2023-02-15T10:40:44;13.40;;;8.68;;
21979;SDS011;11154;48.558;9.234;2023-02-15T10:42:57;13.18;;;8.75;;
21979;SDS011;11154;48.558;9.234;2023-02-15T10:45:15;13.40;;;9.07;;
21979;SDS011;11154;48.558;9.234;2023-02-15T10:47:26;15.13;;;9.02;;
21979;SDS011;11154;48.558;9.234;2023-02-15T10:49:43;15.65;;;8.70;;
21979;SDS011;11154;48.558;9.234;2023-02-15T10:52:07;13.95;;;9.45;;
21979;SDS011;11154;48.558;9.234;2023-02-15T10:54:22;16.17;;;9.50;;
21979;SDS011;11154;48.558;9.234;2023-02-15T10:56:38;15.05;;;10.18;;
21979;SDS011;11154;48.558;9.234;2023-02-15T10:58:59;36.28;;;22.70;;
21979;SDS011;11154;48.558;9.234;2023-02-15T11:01:14;29.02;;;18.48;;
21979;SDS011;11154;48.558;9.234;2023-02-15T11:03:26;19.80;;;11.93;;
21979;SDS011;11154;48.558;9.234;2023-02-15T11:05:39;15.98;;;10.70;;
21979;SDS011;11154;48.558;9.234;2023-02-15T11:07:49;16.33;;;10.82;;
21979;SDS011;11154;48.558;9.234;2023-02-15T11:09:57;16.30;;;10.55;;
21979;SDS011;11154;48.558;9.234;2023-02-15T11:12:02;12.38;;;8.23;;
21979;SDS011;11154;48.558;9.234;2023-02-15T11:14:13;15.55;;;9.38;;
21979;SDS011;11154;48.558;9.234;2023-02-15T11:16:17;14.38;;;9.13;;
21979;SDS011;11154;48.558;9.234;2023-02-15T11:18:23;15.57;;;9.88;;
21979;SDS011;11154;48.558;9.234;2023-02-15T11:20:30;14.05;;;8.85;;
21979;SDS011;11154;48.558;9.234;2023-02-15T11:22:37;14.18;;;9.00;;
21979;SDS011;11154;48.558;9.234;2023-02-15T11:24:40;14.55;;;9.05;;
21979;SDS011;11154;48.558;9.234;2023-02-15T11:26:46;15.55;;;8.88;;
21979;SDS011;11154;48.558;9.234;2023-02-15T11:28:51;14.88;;;9.05;;
21979;SDS011;11154;48.558;9.234;2023-02-15T11:30:57;15.57;;;8.77;;
21979;SDS011;11154;48.558;9.234;2023-02-15T11:33:02;12.88;;;8.02;;
21979;SDS011;11154;48.558;9.234;2023-02-15T11:35:10;13.57;;;8.18;;
21979;SDS011;11154;48.558;9.234;2023-02-15T11:37:27;15.77;;;8.88;;
21979;SDS011;11154;48.558;9.234;2023-02-15T11:39:33;14.27;;;7.60;;
21979;SDS011;11154;48.558;9.234;2023-02-15T11:41:37;10.77;;;7.88;;
21979;SDS011;11154;48.558;9.234;2023-02-15T11:43:44;16.25;;;7.95;;
21979;SDS011;11154;48.558;9.234;2023-02-15T11:45:51;11.85;;;7.20;;
21979;SDS011;11154;48.558;9.234;2023-02-15T11:47:54;13.15;;;7.38;;
21979;SDS011;11154;48.558;9.234;2023-02-15T11:49:57;11.10;;;6.40;;
21979;SDS011;11154;48.558;9.234;2023-02-15T11:51:59;10.27;;;6.68;;
21979;SDS011;11154;48.558;9.234;2023-02-15T11:54:04;15.00;;;7.60;;
21979;SDS011;11154;48.558;9.234;2023-02-15T11:56:10;11.45;;;8.25;;
21979;SDS011;11154;48.558;9.234;2023-02-15T11:58:18;9.13;;;6.30;;
21979;SDS011;11154;48.558;9.234;2023-02-15T12:00:33;11.25;;;7.90;;
21979;SDS011;11154;48.558;9.234;2023-02-15T12:02:37;10.57;;;6.35;;
21979;SDS011;11154;48.558;9.234;2023-02-15T12:04:43;8.23;;;5.38;;
21979;SDS011;11154;48.558;9.234;2023-02-15T12:06:51;7.90;;;5.10;;
21979;SDS011;11154;48.558;9.234;2023-02-15T12:08:59;7.90;;;5.25;;
21979;SDS011;11154;48.558;9.234;2023-02-15T12:11:06;7.43;;;4.72;;
21979;SDS011;11154;48.558;9.234;2023-02-15T12:13:12;8.70;;;5.38;;
21979;SDS011;11154;48.558;9.234;2023-02-15T12:15:16;9.00;;;5.28;;
21979;SDS011;11154;48.558;9.234;2023-02-15T12:17:33;7.90;;;5.15;;
21979;SDS011;11154;48.558;9.234;2023-02-15T12:19:37;8.30;;;5.53;;
21979;SDS011;11154;48.558;9.234;2023-02-15T12:21:41;7.40;;;4.55;;
21979;SDS011;11154;48.558;9.234;2023-02-15T12:23:46;7.50;;;4.80;;
21979;SDS011;11154;48.558;9.234;2023-02-15T12:25:50;9.90;;;5.10;;
21979;SDS011;11154;48.558;9.234;2023-02-15T12:27:54;8.55;;;5.30;;